Time;durP1;ratioP1;P1;durP2;ratioP2;P2;SDS_P1;SDS_P2;PMS_P1;PMS_P2;Temp;Humidity;BMP_temperature;BMP_pressure;BME280_temperature;BME280_humidity;BME280_pressure;Samples;Min_cycle;Max_cycle;Signal;HPM_P1;HPM_P2
2022/03/23 00:01:58;;;;;;;11.05;7.30;;;;;;;;;;5096561;28;20055;-81
2022/03/23 00:04:23;;;;;;;13.10;7.65;;;;;;;;;;5077992;28;20032;-81
2022/03/23 00:06:49;;;;;;;11.75;7.28;;;;;;;;;;5096592;28;20034;-83
2022/03/23 00:09:14;;;;;;;14.70;6.53;;;;;;;;;;5078443;28;20422;-82
2022/03/23 00:11:41;;;;;;;12.15;7.30;;;;;;;;;;5096677;28;20539;-82
2022/03/23 00:14:06;;;;;;;11.80;7.25;;;;;;;;;;5077999;28;20374;-82
2022/03/23 00:16:35;;;;;;;10.98;6.95;;;;;;;;;;5096061;28;20035;-83
2022/03/23 00:19:02;;;;;;;11.65;7.63;;;;;;;;;;5078144;28;20028;-82
2022/03/23 00:21:27;;;;;;;11.70;7.40;;;;;;;;;;5079448;28;20028;-82
2022/03/23 00:23:52;;;;;;;10.50;7.47;;;;;;;;;;5076903;28;20532;-82
2022/03/23 00:26:18;;;;;;;13.88;7.45;;;;;;;;;;5097071;28;20028;-83
2022/03/23 00:28:43;;;;;;;10.57;6.93;;;;;;;;;;5096339;28;20143;-82
2022/03/23 00:31:09;;;;;;;21.58;7.97;;;;;;;;;;5096128;28;20032;-82
2022/03/23 00:33:35;;;;;;;11.75;7.43;;;;;;;;;;5096081;28;20071;-82
2022/03/23 00:36:01;;;;;;;11.88;7.38;;;;;;;;;;5095873;28;20028;-82
2022/03/23 00:38:26;;;;;;;12.80;7.75;;;;;;;;;;5061054;28;20556;-82
2022/03/23 00:40:52;;;;;;;11.65;6.90;;;;;;;;;;5060782;28;20478;-82
2022/03/23 00:43:17;;;;;;;11.73;7.30;;;;;;;;;;5061193;28;20458;-81
2022/03/23 00:45:43;;;;;;;10.90;7.07;;;;;;;;;;5095827;28;20111;-85
2022/03/23 00:48:08;;;;;;;10.98;7.20;;;;;;;;;;5078075;28;20049;-83
2022/03/23 00:50:34;;;;;;;13.82;7.10;;;;;;;;;;5077562;28;20415;-82
2022/03/23 00:52:59;;;;;;;10.25;6.93;;;;;;;;;;5077341;28;20486;-82
2022/03/23 00:55:25;;;;;;;11.18;7.55;;;;;;;;;;5095275;28;20418;-83
2022/03/23 00:57:51;;;;;;;11.80;7.47;;;;;;;;;;5044021;28;20036;-86
2022/03/23 01:00:20;;;;;;;11.80;6.90;;;;;;;;;;5096751;28;20028;-82
2022/03/23 01:02:46;;;;;;;11.43;6.82;;;;;;;;;;5077620;28;20024;-82
2022/03/23 01:05:12;;;;;;;14.25;7.10;;;;;;;;;;5077597;28;20479;-84
2022/03/23 01:07:39;;;;;;;14.55;7.85;;;;;;;;;;5060119;28;20032;-83
2022/03/23 01:10:06;;;;;;;9.88;6.90;;;;;;;;;;5061158;28;20027;-81
2022/03/23 01:12:31;;;;;;;11.88;6.68;;;;;;;;;;5077111;28;20394;-84
2022/03/23 01:14:57;;;;;;;14.18;7.20;;;;;;;;;;5095088;28;20024;-84
2022/03/23 01:17:23;;;;;;;13.75;7.35;;;;;;;;;;5079074;28;20020;-84
2022/03/23 01:19:49;;;;;;;16.35;7.43;;;;;;;;;;5094802;28;20511;-84
2022/03/23 01:22:16;;;;;;;14.98;7.43;;;;;;;;;;5077260;28;20043;-83
2022/03/23 01:24:42;;;;;;;12.55;6.63;;;;;;;;;;5076922;28;20035;-84
2022/03/23 01:27:08;;;;;;;11.18;6.63;;;;;;;;;;5094510;28;20036;-84
2022/03/23 01:29:34;;;;;;;11.80;7.15;;;;;;;;;;5059828;28;20054;-83
2022/03/23 01:31:59;;;;;;;11.82;7.28;;;;;;;;;;5076842;28;20451;-83
2022/03/23 01:34:25;;;;;;;9.65;6.55;;;;;;;;;;5059426;28;20032;-83
2022/03/23 01:36:50;;;;;;;12.45;7.50;;;;;;;;;;5076049;28;20465;-83
2022/03/23 01:39:16;;;;;;;11.32;6.50;;;;;;;;;;5076367;28;20024;-85
2022/03/23 01:41:41;;;;;;;11.20;6.75;;;;;;;;;;5094362;28;20467;-84
2022/03/23 01:44:13;;;;;;;14.35;6.90;;;;;;;;;;5076074;28;20034;-84
2022/03/23 01:47:07;;;;;;;10.48;6.63;;;;;;;;;;5094387;28;20054;-83
2022/03/23 01:49:39;;;;;;;15.63;7.20;;;;;;;;;;5076623;28;20020;-82
2022/03/23 01:52:06;;;;;;;9.77;6.18;;;;;;;;;;5076094;28;20478;-83
2022/03/23 01:54:32;;;;;;;10.07;7.13;;;;;;;;;;5093930;28;20020;-84
2022/03/23 01:56:57;;;;;;;11.50;6.78;;;;;;;;;;5076190;28;20119;-82
2022/03/23 01:59:23;;;;;;;9.27;6.60;;;;;;;;;;5075986;28;20034;-84
2022/03/23 02:01:49;;;;;;;12.88;7.18;;;;;;;;;;5075811;28;20515;-83
2022/03/23 02:04:16;;;;;;;9.80;7.10;;;;;;;;;;5093868;28;20028;-82
2022/03/23 02:06:41;;;;;;;11.20;6.88;;;;;;;;;;5076382;28;20025;-82
2022/03/23 02:09:07;;;;;;;11.40;7.10;;;;;;;;;;5093633;28;20607;-82
2022/03/23 02:11:35;;;;;;;11.70;7.13;;;;;;;;;;5094206;28;20032;-82
2022/03/23 02:14:00;;;;;;;11.13;7.22;;;;;;;;;;5076324;28;20028;-84
2022/03/23 02:16:26;;;;;;;11.98;7.03;;;;;;;;;;5075726;28;20039;-84
2022/03/23 02:18:51;;;;;;;13.95;7.05;;;;;;;;;;5093976;28;20111;-83
2022/03/23 02:21:16;;;;;;;10.35;6.80;;;;;;;;;;5075927;28;20028;-83
2022/03/23 02:23:42;;;;;;;11.77;6.85;;;;;;;;;;5093494;28;20024;-83
2022/03/23 02:26:08;;;;;;;12.07;6.50;;;;;;;;;;5075615;28;20024;-83
2022/03/23 02:28:34;;;;;;;10.68;6.60;;;;;;;;;;5075667;28;20036;-85
2022/03/23 02:31:01;;;;;;;12.45;6.55;;;;;;;;;;5075467;28;20027;-85
2022/03/23 02:33:26;;;;;;;13.90;7.00;;;;;;;;;;5075198;28;20028;-84
2022/03/23 02:35:52;;;;;;;10.93;6.80;;;;;;;;;;5057903;28;20089;-83
2022/03/23 02:38:17;;;;;;;8.75;6.75;;;;;;;;;;5093558;28;20518;-85
2022/03/23 02:40:46;;;;;;;12.13;7.05;;;;;;;;;;5093243;28;20395;-83
2022/03/23 02:43:12;;;;;;;10.38;6.57;;;;;;;;;;5059469;28;20534;-83
2022/03/23 02:45:38;;;;;;;10.55;6.57;;;;;;;;;;5074789;28;20031;-83
2022/03/23 02:48:05;;;;;;;12.85;6.65;;;;;;;;;;5058220;28;20036;-82
2022/03/23 02:50:31;;;;;;;13.40;6.55;;;;;;;;;;5075210;28;20028;-84
2022/03/23 03:03:59;;;;;;;13.45;6.15;;;;;;;;;;5092850;28;20089;-84
2022/03/23 03:06:24;;;;;;;10.57;7.07;;;;;;;;;;5075188;28;20031;-83
2022/03/23 03:08:49;;;;;;;9.20;6.43;;;;;;;;;;5074903;28;20055;-83
2022/03/23 03:11:17;;;;;;;11.82;6.57;;;;;;;;;;5075128;28;20490;-83
2022/03/23 03:13:43;;;;;;;11.23;6.38;;;;;;;;;;5058416;28;20371;-82
2022/03/23 03:16:08;;;;;;;10.18;6.50;;;;;;;;;;5057970;28;20031;-82
2022/03/23 03:18:34;;;;;;;13.43;6.80;;;;;;;;;;5074822;28;20035;-84
2022/03/23 03:21:03;;;;;;;10.40;6.63;;;;;;;;;;5057972;28;20048;-85
2022/03/23 03:23:30;;;;;;;13.68;6.50;;;;;;;;;;5058107;28;20024;-83
2022/03/23 03:25:56;;;;;;;9.50;6.40;;;;;;;;;;5075279;28;20049;-82
2022/03/23 03:28:22;;;;;;;9.18;6.57;;;;;;;;;;5093387;28;20053;-84
2022/03/23 03:30:47;;;;;;;10.05;6.68;;;;;;;;;;5074818;28;20111;-84
2022/03/23 03:33:13;;;;;;;8.70;6.30;;;;;;;;;;5093188;28;20028;-84
2022/03/23 03:35:38;;;;;;;12.65;6.88;;;;;;;;;;5057621;28;20043;-84
2022/03/23 03:38:04;;;;;;;8.40;6.53;;;;;;;;;;5074820;28;20135;-84
2022/03/23 03:40:29;;;;;;;10.35;7.35;;;;;;;;;;5057782;28;20487;-84
2022/03/23 03:42:55;;;;;;;11.65;6.03;;;;;;;;;;5074920;28;20020;-84
2022/03/23 03:45:20;;;;;;;9.10;7.00;;;;;;;;;;5074460;28;20119;-84
2022/03/23 03:47:46;;;;;;;9.18;6.68;;;;;;;;;;5057827;28;20532;-83
2022/03/23 03:50:11;;;;;;;10.93;6.45;;;;;;;;;;5093109;28;20028;-84
2022/03/23 03:52:37;;;;;;;8.88;6.18;;;;;;;;;;5092768;28;20438;-83
2022/03/23 03:55:04;;;;;;;10.65;6.57;;;;;;;;;;5058875;28;20052;-83
2022/03/23 03:57:29;;;;;;;10.13;6.88;;;;;;;;;;5092611;28;20179;-85
2022/03/23 03:59:54;;;;;;;10.57;6.85;;;;;;;;;;5062102;28;20475;-86
2022/03/23 04:02:20;;;;;;;9.35;6.88;;;;;;;;;;5079830;28;20463;-85
2022/03/23 04:04:46;;;;;;;9.38;6.57;;;;;;;;;;5102364;28;20039;-85
2022/03/23 04:07:11;;;;;;;10.45;7.05;;;;;;;;;;5100350;28;20035;-84
2022/03/23 04:09:36;;;;;;;11.73;6.90;;;;;;;;;;5097358;28;20144;-84
2022/03/23 04:12:03;;;;;;;8.57;6.43;;;;;;;;;;5097040;28;20032;-85
2022/03/23 04:14:28;;;;;;;9.00;6.32;;;;;;;;;;5062462;28;20031;-86
2022/03/23 04:16:54;;;;;;;8.95;6.15;;;;;;;;;;5097478;28;20032;-85
2022/03/23 04:19:19;;;;;;;10.70;6.68;;;;;;;;;;5078161;28;20051;-85
2022/03/23 04:21:45;;;;;;;9.63;6.35;;;;;;;;;;5078299;28;20024;-85
2022/03/23 04:24:11;;;;;;;16.77;6.68;;;;;;;;;;5077550;28;20074;-85
2022/03/23 04:26:36;;;;;;;8.95;6.45;;;;;;;;;;5079937;28;20032;-84
2022/03/23 04:29:01;;;;;;;8.88;6.75;;;;;;;;;;5061390;28;20163;-85
2022/03/23 04:31:27;;;;;;;8.40;6.43;;;;;;;;;;5060886;28;20110;-85
2022/03/23 04:33:52;;;;;;;10.00;6.53;;;;;;;;;;5061021;28;20483;-85
2022/03/23 04:36:18;;;;;;;10.30;6.25;;;;;;;;;;5077747;28;20113;-85
2022/03/23 04:38:43;;;;;;;9.02;6.13;;;;;;;;;;5077580;28;20056;-85
2022/03/23 04:41:08;;;;;;;8.82;5.85;;;;;;;;;;5077698;28;20036;-85
2022/03/23 04:43:35;;;;;;;8.80;5.95;;;;;;;;;;5077568;28;20032;-85
2022/03/23 04:46:00;;;;;;;7.05;5.45;;;;;;;;;;5077355;28;20052;-84
2022/03/23 04:48:26;;;;;;;9.35;5.93;;;;;;;;;;5077481;28;20505;-83
2022/03/23 04:50:51;;;;;;;9.27;5.75;;;;;;;;;;5060572;28;20488;-83
2022/03/23 04:53:17;;;;;;;10.25;5.65;;;;;;;;;;5077540;28;20111;-83
2022/03/23 04:55:43;;;;;;;8.85;6.35;;;;;;;;;;5077252;28;20462;-83
2022/03/23 04:58:08;;;;;;;10.32;6.85;;;;;;;;;;5077391;28;20024;-84
2022/03/23 05:00:34;;;;;;;10.13;6.43;;;;;;;;;;5077238;28;20463;-83
2022/03/23 05:03:00;;;;;;;9.68;6.30;;;;;;;;;;5076824;28;20036;-82
2022/03/23 05:05:26;;;;;;;9.93;6.20;;;;;;;;;;5095503;28;20031;-82
2022/03/23 05:07:51;;;;;;;7.90;5.85;;;;;;;;;;5077515;28;20084;-82
2022/03/23 05:10:17;;;;;;;10.30;6.30;;;;;;;;;;5059618;28;20032;-82
2022/03/23 05:12:44;;;;;;;9.18;6.15;;;;;;;;;;5095167;28;20081;-82
2022/03/23 05:15:10;;;;;;;9.20;6.00;;;;;;;;;;5077154;28;20016;-83
2022/03/23 05:17:36;;;;;;;9.38;5.53;;;;;;;;;;5095389;28;20449;-82
2022/03/23 05:20:02;;;;;;;9.60;5.88;;;;;;;;;;5059899;28;20024;-82
2022/03/23 05:22:27;;;;;;;9.27;5.97;;;;;;;;;;5076920;28;20039;-83
2022/03/23 05:24:53;;;;;;;8.02;5.90;;;;;;;;;;5076184;28;20164;-83
2022/03/23 05:27:19;;;;;;;8.43;5.95;;;;;;;;;;5076396;28;20486;-83
2022/03/23 05:29:44;;;;;;;11.20;5.82;;;;;;;;;;5094715;28;20028;-82
2022/03/23 05:32:16;;;;;;;9.63;6.43;;;;;;;;;;5059796;28;20028;-81
2022/03/23 05:34:48;;;;;;;9.00;5.50;;;;;;;;;;5078141;28;20020;-81
2022/03/23 05:37:16;;;;;;;10.00;6.20;;;;;;;;;;5060642;28;20118;-81
2022/03/23 05:39:42;;;;;;;11.75;5.85;;;;;;;;;;5077499;28;20028;-80
2022/03/23 05:42:08;;;;;;;9.20;5.95;;;;;;;;;;5077049;28;20031;-81
2022/03/23 05:44:34;;;;;;;9.63;5.75;;;;;;;;;;5094722;28;20394;-81
2022/03/23 05:46:59;;;;;;;8.43;5.53;;;;;;;;;;5060446;28;20508;-81
2022/03/23 05:49:25;;;;;;;9.13;5.95;;;;;;;;;;5076864;28;20028;-82
2022/03/23 05:51:52;;;;;;;13.27;6.28;;;;;;;;;;5094720;28;20532;-79
2022/03/23 05:54:18;;;;;;;19.92;7.15;;;;;;;;;;5094642;28;20031;-80
2022/03/23 05:56:43;;;;;;;16.08;7.78;;;;;;;;;;5076438;28;20032;-78
2022/03/23 05:59:08;;;;;;;18.48;7.70;;;;;;;;;;5095416;28;20046;-80
2022/03/23 06:01:35;;;;;;;15.43;8.70;;;;;;;;;;5096105;28;20467;-81
2022/03/23 06:04:00;;;;;;;17.60;8.63;;;;;;;;;;5076894;28;20024;-79
2022/03/23 06:06:26;;;;;;;17.52;8.25;;;;;;;;;;5077258;28;20028;-80
2022/03/23 06:08:51;;;;;;;17.58;8.27;;;;;;;;;;5078282;28;20371;-80
2022/03/23 06:11:16;;;;;;;19.58;9.05;;;;;;;;;;5077980;28;20047;-79
2022/03/23 06:13:44;;;;;;;18.85;8.95;;;;;;;;;;5060696;28;20024;-78
2022/03/23 06:16:09;;;;;;;17.98;8.65;;;;;;;;;;5095030;28;20020;-79
2022/03/23 06:18:35;;;;;;;22.55;9.18;;;;;;;;;;5095240;28;20073;-78
2022/03/23 06:21:01;;;;;;;21.70;9.00;;;;;;;;;;5075839;28;20032;-78
2022/03/23 06:23:26;;;;;;;18.95;8.30;;;;;;;;;;5059766;28;20393;-78
2022/03/23 06:25:52;;;;;;;15.82;7.68;;;;;;;;;;5077493;28;20035;-78
2022/03/23 06:28:17;;;;;;;13.23;7.90;;;;;;;;;;5094569;28;20039;-78
2022/03/23 06:30:43;;;;;;;26.52;8.27;;;;;;;;;;5095189;28;20111;-79
2022/03/23 06:33:08;;;;;;;20.70;8.60;;;;;;;;;;5076911;28;20383;-80
2022/03/23 06:35:33;;;;;;;22.63;9.32;;;;;;;;;;5095206;28;20070;-79
2022/03/23 06:37:59;;;;;;;16.50;7.95;;;;;;;;;;5059941;28;20024;-80
2022/03/23 06:40:24;;;;;;;22.63;8.48;;;;;;;;;;5059781;28;20399;-78
2022/03/23 06:42:50;;;;;;;16.17;8.15;;;;;;;;;;5076540;28;20047;-78
2022/03/23 06:45:15;;;;;;;14.77;8.38;;;;;;;;;;5094777;28;20055;-78
2022/03/23 06:47:41;;;;;;;16.52;8.60;;;;;;;;;;5059483;28;20471;-77
2022/03/23 06:50:10;;;;;;;16.88;8.52;;;;;;;;;;5075791;28;20040;-79
2022/03/23 06:52:35;;;;;;;15.70;8.07;;;;;;;;;;5059312;28;20034;-79
2022/03/23 06:55:01;;;;;;;13.90;8.77;;;;;;;;;;5075501;28;20048;-78
2022/03/23 06:57:26;;;;;;;17.67;8.32;;;;;;;;;;5075516;28;20425;-79
2022/03/23 06:59:51;;;;;;;16.10;8.40;;;;;;;;;;5093617;28;20036;-79
2022/03/23 07:02:17;;;;;;;14.82;7.88;;;;;;;;;;5058929;28;20501;-79
2022/03/23 07:04:43;;;;;;;15.48;7.90;;;;;;;;;;5075391;28;20116;-79
2022/03/23 07:07:08;;;;;;;11.77;7.45;;;;;;;;;;5075604;28;20028;-79
2022/03/23 07:09:35;;;;;;;11.25;7.47;;;;;;;;;;5058625;28;20028;-79
2022/03/23 07:12:09;;;;;;;16.38;7.65;;;;;;;;;;5094069;28;20032;-79
2022/03/23 07:14:36;;;;;;;13.27;7.22;;;;;;;;;;5058683;28;20120;-79
2022/03/23 07:17:03;;;;;;;11.55;6.90;;;;;;;;;;5093829;28;20020;-79
2022/03/23 07:19:29;;;;;;;11.32;7.47;;;;;;;;;;5093583;28;20024;-79
2022/03/23 07:21:54;;;;;;;13.35;7.30;;;;;;;;;;5093448;28;20035;-79
2022/03/23 07:24:20;;;;;;;15.90;7.38;;;;;;;;;;5075490;28;20045;-79
2022/03/23 07:26:45;;;;;;;13.13;6.80;;;;;;;;;;5075563;28;20028;-79
2022/03/23 07:29:11;;;;;;;11.15;6.63;;;;;;;;;;5093800;28;20405;-79
2022/03/23 07:31:36;;;;;;;15.18;7.75;;;;;;;;;;5093365;28;20035;-78
2022/03/23 07:34:03;;;;;;;11.82;6.93;;;;;;;;;;5096859;28;20032;-78
2022/03/23 07:36:29;;;;;;;11.77;7.32;;;;;;;;;;5097171;28;20103;-80
2022/03/23 07:38:55;;;;;;;13.07;7.03;;;;;;;;;;5063030;28;20035;-79
2022/03/23 07:41:20;;;;;;;9.38;6.53;;;;;;;;;;5097520;28;20020;-79
2022/03/23 07:43:46;;;;;;;12.45;6.70;;;;;;;;;;5062785;28;20028;-80
2022/03/23 07:46:11;;;;;;;11.13;6.90;;;;;;;;;;5079351;28;20055;-79
2022/03/23 07:48:36;;;;;;;11.55;6.82;;;;;;;;;;5097043;28;20028;-79
2022/03/23 07:51:02;;;;;;;11.32;7.20;;;;;;;;;;5098501;28;20040;-79
2022/03/23 07:53:27;;;;;;;14.07;7.20;;;;;;;;;;5064300;28;20123;-79
2022/03/23 07:55:54;;;;;;;9.85;6.90;;;;;;;;;;5098467;28;20059;-79
2022/03/23 07:58:19;;;;;;;18.40;7.00;;;;;;;;;;5080298;28;20039;-82
2022/03/23 08:00:45;;;;;;;10.93;6.53;;;;;;;;;;5079217;28;20028;-79
2022/03/23 08:03:11;;;;;;;9.68;6.22;;;;;;;;;;5096732;28;20035;-79
2022/03/23 08:05:40;;;;;;;12.32;7.30;;;;;;;;;;5078807;28;20119;-80
2022/03/23 08:08:08;;;;;;;12.27;6.65;;;;;;;;;;5045726;28;20038;-80
2022/03/23 08:10:35;;;;;;;15.18;6.80;;;;;;;;;;5097147;28;20470;-80
2022/03/23 08:13:01;;;;;;;12.70;6.53;;;;;;;;;;5079311;28;20024;-79
2022/03/23 08:15:29;;;;;;;11.18;7.20;;;;;;;;;;5096558;28;20032;-79
2022/03/23 08:17:55;;;;;;;12.35;6.32;;;;;;;;;;5097105;28;20045;-79
2022/03/23 08:20:35;;;;;;;23.98;8.27;;;;;;;;;;5078326;28;20065;-79
2022/03/23 08:23:10;;;;;;;21.05;6.68;;;;;;;;;;5063788;28;20070;-79
2022/03/23 08:25:38;;;;;;;13.57;6.55;;;;;;;;;;5079274;28;20081;-79
2022/03/23 08:28:05;;;;;;;14.00;6.53;;;;;;;;;;5078845;28;20036;-78
2022/03/23 08:30:31;;;;;;;15.93;6.88;;;;;;;;;;5096438;28;20036;-78
2022/03/23 08:32:56;;;;;;;11.02;6.60;;;;;;;;;;5061847;28;20115;-79
2022/03/23 08:35:23;;;;;;;11.50;6.85;;;;;;;;;;5062175;28;20059;-78
2022/03/23 08:37:49;;;;;;;14.65;6.47;;;;;;;;;;5061578;28;20082;-79
2022/03/23 08:40:15;;;;;;;11.48;6.85;;;;;;;;;;5078394;28;20032;-78
2022/03/23 08:42:41;;;;;;;15.38;7.07;;;;;;;;;;5077972;28;20031;-79
2022/03/23 08:45:07;;;;;;;15.38;6.95;;;;;;;;;;5095707;28;20024;-79
2022/03/23 08:47:32;;;;;;;11.88;7.07;;;;;;;;;;5077854;28;20024;-78
2022/03/23 08:49:58;;;;;;;13.02;7.25;;;;;;;;;;5078126;28;20028;-79
2022/03/23 08:52:24;;;;;;;13.02;6.78;;;;;;;;;;5095971;28;20032;-78
2022/03/23 08:54:50;;;;;;;14.00;7.25;;;;;;;;;;5074583;28;20087;-79
2022/03/23 08:57:15;;;;;;;13.10;6.63;;;;;;;;;;5074954;28;20482;-78
2022/03/23 08:59:41;;;;;;;15.70;7.57;;;;;;;;;;5075410;28;20403;-78
2022/03/23 09:02:07;;;;;;;11.18;6.75;;;;;;;;;;5075478;28;20432;-78
2022/03/23 09:04:32;;;;;;;15.13;6.65;;;;;;;;;;5075359;28;20025;-78
2022/03/23 09:06:57;;;;;;;12.70;6.90;;;;;;;;;;5075688;28;20032;-78
2022/03/23 09:09:23;;;;;;;15.38;7.28;;;;;;;;;;5075196;28;20025;-78
2022/03/23 09:11:48;;;;;;;16.45;6.88;;;;;;;;;;5074814;28;20044;-79
2022/03/23 09:14:14;;;;;;;11.90;6.05;;;;;;;;;;5075203;28;20057;-79
2022/03/23 09:16:40;;;;;;;9.80;5.57;;;;;;;;;;5057328;28;20111;-80
2022/03/23 09:19:05;;;;;;;17.00;6.47;;;;;;;;;;5058115;28;20123;-78
2022/03/23 09:21:32;;;;;;;10.05;6.20;;;;;;;;;;5075677;28;20432;-79
2022/03/23 09:23:57;;;;;;;9.15;6.05;;;;;;;;;;5074035;28;20035;-79
2022/03/23 09:26:24;;;;;;;13.52;5.90;;;;;;;;;;5073806;28;20481;-78
2022/03/23 09:28:51;;;;;;;11.25;6.13;;;;;;;;;;5076795;28;20024;-78
2022/03/23 09:31:17;;;;;;;11.18;6.45;;;;;;;;;;5075761;28;20028;-80
2022/03/23 09:33:43;;;;;;;13.30;6.22;;;;;;;;;;5081023;28;20020;-77
2022/03/23 09:37:47;;;;;;;10.07;6.20;;;;;;;;;;5059234;28;20025;-78
2022/03/23 09:38:54;;;;;;;17.65;6.15;;;;;;;;;;5074392;28;20036;-78
2022/03/23 09:41:19;;;;;;;11.70;5.45;;;;;;;;;;5073618;28;20066;-80
2022/03/23 09:43:46;;;;;;;13.57;5.82;;;;;;;;;;5057807;28;20033;-85
2022/03/23 09:46:11;;;;;;;10.05;6.95;;;;;;;;;;5056627;28;20036;-84
2022/03/23 09:48:37;;;;;;;12.57;6.20;;;;;;;;;;5073368;28;20032;-82
2022/03/23 09:51:02;;;;;;;12.55;6.78;;;;;;;;;;5057023;28;20127;-81
2022/03/23 09:53:28;;;;;;;11.57;6.35;;;;;;;;;;5075384;28;20047;-80
2022/03/23 09:55:54;;;;;;;12.38;6.20;;;;;;;;;;5073732;28;20060;-81
2022/03/23 09:58:20;;;;;;;9.20;5.80;;;;;;;;;;5074854;28;20036;-81
2022/03/23 10:00:45;;;;;;;10.85;6.43;;;;;;;;;;5073830;28;20133;-81
2022/03/23 10:03:13;;;;;;;12.63;6.85;;;;;;;;;;5074380;28;20446;-81
2022/03/23 10:06:03;;;;;;;11.32;6.63;;;;;;;;;;5072951;28;20081;-84
2022/03/23 10:08:41;;;;;;;14.95;6.22;;;;;;;;;;5076090;28;20074;-83
2022/03/23 10:11:19;;;;;;;10.98;5.88;;;;;;;;;;5074721;28;20028;-88
2022/03/23 10:14:09;;;;;;;11.48;5.82;;;;;;;;;;5074901;28;20079;-88
2022/03/23 10:17:02;;;;;;;13.27;6.55;;;;;;;;;;5078241;28;20029;-86
2022/03/23 10:19:27;;;;;;;9.05;5.95;;;;;;;;;;5074417;28;20028;-82
2022/03/23 10:21:53;;;;;;;15.60;5.78;;;;;;;;;;5073173;28;20040;-81
2022/03/23 10:24:19;;;;;;;10.38;5.47;;;;;;;;;;5073818;28;20066;-81
2022/03/23 10:26:44;;;;;;;10.50;5.03;;;;;;;;;;5073067;28;20032;-80
2022/03/23 10:29:19;;;;;;;11.77;5.03;;;;;;;;;;5056434;28;20036;-81
2022/03/23 10:31:45;;;;;;;12.52;5.88;;;;;;;;;;5058090;28;20066;-81
2022/03/23 10:34:10;;;;;;;14.43;6.75;;;;;;;;;;5057892;28;20430;-81
2022/03/23 10:36:38;;;;;;;11.60;5.53;;;;;;;;;;5057647;28;20459;-80
2022/03/23 10:39:10;;;;;;;16.10;5.78;;;;;;;;;;5079174;28;20024;-83
2022/03/23 10:41:36;;;;;;;17.75;6.40;;;;;;;;;;5061353;28;20025;-83
2022/03/23 10:44:02;;;;;;;13.45;5.68;;;;;;;;;;5073851;28;20029;-82
2022/03/23 10:46:27;;;;;;;12.63;5.70;;;;;;;;;;5056150;28;20479;-82
2022/03/23 10:49:01;;;;;;;14.98;6.45;;;;;;;;;;5075341;28;20105;-82
2022/03/23 10:51:31;;;;;;;15.85;5.50;;;;;;;;;;5073039;28;20052;-81
2022/03/23 10:53:57;;;;;;;16.52;5.15;;;;;;;;;;5056719;28;20091;-81
2022/03/23 10:56:30;;;;;;;14.18;4.97;;;;;;;;;;5072667;28;20048;-80
2022/03/23 10:59:26;;;;;;;13.25;5.38;;;;;;;;;;5055800;28;20060;-79
2022/03/23 11:01:57;;;;;;;8.35;4.72;;;;;;;;;;5070376;28;20040;-79
2022/03/23 11:04:29;;;;;;;9.60;4.80;;;;;;;;;;5072404;28;20025;-80
2022/03/23 11:06:59;;;;;;;13.65;4.60;;;;;;;;;;5072429;28;20039;-79
2022/03/23 11:18:09;;;;;;;;;;;;;;;;;;5074832;28;20391;-80
2022/03/23 11:20:49;;;;;;;9.82;4.32;;;;;;;;;;5073900;28;19917;-79
2022/03/23 11:23:27;;;;;;;10.98;4.68;;;;;;;;;;5073357;28;20028;-80
2022/03/23 11:26:13;;;;;;;11.38;4.43;;;;;;;;;;5072807;28;20036;-80
2022/03/23 11:28:46;;;;;;;11.43;4.95;;;;;;;;;;5072994;28;20127;-79
2022/03/23 11:31:16;;;;;;;12.30;4.95;;;;;;;;;;5073784;28;20048;-81
2022/03/23 11:33:44;;;;;;;8.82;4.60;;;;;;;;;;5072997;28;20052;-81
2022/03/23 11:36:11;;;;;;;11.15;4.70;;;;;;;;;;5073732;28;20021;-81
2022/03/23 11:38:38;;;;;;;8.98;4.35;;;;;;;;;;5073625;28;20028;-81
2022/03/23 11:41:05;;;;;;;9.02;4.75;;;;;;;;;;5056103;28;20136;-80
2022/03/23 11:43:33;;;;;;;8.30;3.67;;;;;;;;;;5071831;28;20104;-80
2022/03/23 11:45:59;;;;;;;11.38;4.30;;;;;;;;;;5056381;28;20119;-81
2022/03/23 11:48:46;;;;;;;11.10;4.25;;;;;;;;;;5071824;28;20102;-80
2022/03/23 11:51:33;;;;;;;13.38;4.07;;;;;;;;;;5055233;28;20029;-81
2022/03/23 11:54:01;;;;;;;13.38;4.53;;;;;;;;;;5071685;28;20429;-79
2022/03/23 11:56:52;;;;;;;8.07;3.47;;;;;;;;;;5091913;28;20159;-80
2022/03/23 11:59:24;;;;;;;13.20;4.18;;;;;;;;;;5062231;28;20180;-80
2022/03/23 12:01:50;;;;;;;10.30;4.68;;;;;;;;;;5075292;28;20475;-78
2022/03/23 12:04:27;;;;;;;7.95;4.13;;;;;;;;;;5042615;28;20032;-79
2022/03/23 12:07:09;;;;;;;15.57;4.55;;;;;;;;;;5060012;28;20020;-81
2022/03/23 12:09:54;;;;;;;12.27;4.35;;;;;;;;;;5075700;28;20040;-79
2022/03/23 12:12:33;;;;;;;12.18;4.35;;;;;;;;;;5076669;28;20024;-80
2022/03/23 12:15:17;;;;;;;13.25;3.78;;;;;;;;;;5058950;28;20024;-79
2022/03/23 12:18:00;;;;;;;9.35;4.38;;;;;;;;;;5075189;28;20035;-80
2022/03/23 12:20:30;;;;;;;15.00;3.58;;;;;;;;;;5061056;28;20383;-80
2022/03/23 12:23:08;;;;;;;15.35;4.10;;;;;;;;;;5096536;28;20020;-80
2022/03/23 12:25:56;;;;;;;7.93;3.47;;;;;;;;;;5062090;28;20103;-80
2022/03/23 12:28:43;;;;;;;12.98;4.40;;;;;;;;;;5097304;28;20035;-80
2022/03/23 12:31:17;;;;;;;10.60;2.85;;;;;;;;;;5063572;28;20118;-79
2022/03/23 12:34:17;;;;;;;11.05;4.22;;;;;;;;;;5062983;28;20467;-79
2022/03/23 12:37:01;;;;;;;16.85;3.88;;;;;;;;;;5099846;28;20043;-80
2022/03/23 12:39:37;;;;;;;14.20;3.53;;;;;;;;;;5064480;28;20027;-77
2022/03/23 12:42:16;;;;;;;7.93;3.05;;;;;;;;;;5098407;28;20058;-77
2022/03/23 12:44:48;;;;;;;6.55;3.53;;;;;;;;;;5096931;28;20027;-80
2022/03/23 12:47:20;;;;;;;8.18;2.95;;;;;;;;;;5098997;28;20478;-80
2022/03/23 12:58:27;;;;;;;8.77;3.40;;;;;;;;;;5096867;28;20046;-82
2022/03/23 13:00:54;;;;;;;12.38;3.90;;;;;;;;;;5095994;28;20360;-82
2022/03/23 13:03:21;;;;;;;12.45;3.55;;;;;;;;;;5078018;28;20055;-82
2022/03/23 13:05:57;;;;;;;6.80;3.30;;;;;;;;;;5077769;28;20027;-82
2022/03/23 13:08:35;;;;;;;7.75;3.00;;;;;;;;;;5095969;28;20494;-81
2022/03/23 13:11:03;;;;;;;11.35;3.53;;;;;;;;;;5095875;28;20024;-82
2022/03/23 13:13:32;;;;;;;7.57;3.10;;;;;;;;;;5078074;28;20074;-81
2022/03/23 13:15:58;;;;;;;8.48;3.13;;;;;;;;;;5095550;28;20444;-84
2022/03/23 13:18:25;;;;;;;7.88;3.25;;;;;;;;;;5060659;28;20107;-86
2022/03/23 13:20:51;;;;;;;7.90;3.25;;;;;;;;;;5077919;28;20051;-82
2022/03/23 13:23:20;;;;;;;9.93;2.80;;;;;;;;;;5077106;28;20435;-82
2022/03/23 13:26:06;;;;;;;8.23;2.83;;;;;;;;;;5095676;28;20479;-83
2022/03/23 13:28:35;;;;;;;7.20;3.40;;;;;;;;;;5080474;28;20052;-83
2022/03/23 13:31:03;;;;;;;9.23;3.22;;;;;;;;;;5094990;28;20027;-85
2022/03/23 13:33:42;;;;;;;12.50;3.95;;;;;;;;;;5073426;28;20030;-84
2022/03/23 13:36:09;;;;;;;6.45;2.85;;;;;;;;;;5077183;28;20036;-85
2022/03/23 13:38:37;;;;;;;7.10;2.63;;;;;;;;;;5094873;28;20028;-85
2022/03/23 13:43:52;;;;;;;9.55;3.33;;;;;;;;;;5079520;28;20077;-83
2022/03/23 13:46:19;;;;;;;8.00;3.03;;;;;;;;;;5077502;28;20024;-84
2022/03/23 13:48:58;;;;;;;5.80;2.70;;;;;;;;;;5076495;28;20035;-84
2022/03/23 13:51:37;;;;;;;7.53;3.10;;;;;;;;;;5077253;28;20074;-82
2022/03/23 13:54:11;;;;;;;7.72;2.40;;;;;;;;;;5058628;28;20016;-83
2022/03/23 13:56:38;;;;;;;8.32;3.00;;;;;;;;;;5059198;28;20048;-83
2022/03/23 13:59:06;;;;;;;10.57;2.70;;;;;;;;;;5094942;28;20039;-84
2022/03/23 14:01:40;;;;;;;7.90;3.35;;;;;;;;;;5076759;28;20032;-85
2022/03/23 14:04:06;;;;;;;6.53;2.50;;;;;;;;;;5094296;28;20024;-84
2022/03/23 14:06:43;;;;;;;5.63;2.63;;;;;;;;;;5076736;28;20028;-85
2022/03/23 14:09:08;;;;;;;6.65;2.70;;;;;;;;;;5076597;28;20035;-83
2022/03/23 14:14:19;;;;;;;5.35;2.70;;;;;;;;;;5078960;28;20455;-83
2022/03/23 14:17:02;;;;;;;19.42;3.83;;;;;;;;;;5076224;28;20032;-83
2022/03/23 14:19:34;;;;;;;22.80;4.13;;;;;;;;;;5059562;28;20108;-83
2022/03/23 14:22:03;;;;;;;12.07;4.22;;;;;;;;;;5075953;28;20023;-83
2022/03/23 14:24:33;;;;;;;10.80;4.78;;;;;;;;;;5076312;28;20065;-83
2022/03/23 14:27:11;;;;;;;16.63;5.07;;;;;;;;;;5059795;28;20097;-83
2022/03/23 14:29:37;;;;;;;15.77;5.00;;;;;;;;;;5094390;28;20028;-83
2022/03/23 14:32:03;;;;;;;23.17;5.47;;;;;;;;;;5059366;28;20024;-83
2022/03/23 14:34:31;;;;;;;13.57;5.00;;;;;;;;;;5094255;28;20501;-84
2022/03/23 14:37:09;;;;;;;16.63;5.80;;;;;;;;;;5060183;28;20059;-82
2022/03/23 14:39:43;;;;;;;12.90;5.32;;;;;;;;;;5075539;28;20056;-82
2022/03/23 14:42:11;;;;;;;16.30;5.57;;;;;;;;;;5042470;28;20052;-82
2022/03/23 14:44:39;;;;;;;15.52;5.57;;;;;;;;;;5075607;28;20020;-83
2022/03/23 14:47:09;;;;;;;21.48;6.72;;;;;;;;;;5076005;28;20028;-81
2022/03/23 14:49:45;;;;;;;16.58;5.90;;;;;;;;;;5075540;28;20032;-81
2022/03/23 14:52:13;;;;;;;16.70;6.10;;;;;;;;;;5075777;28;20034;-82
2022/03/23 14:54:47;;;;;;;17.42;5.70;;;;;;;;;;5075731;28;20027;-82
2022/03/23 14:57:13;;;;;;;20.73;6.00;;;;;;;;;;5059924;28;20036;-82
2022/03/23 14:59:42;;;;;;;15.52;5.25;;;;;;;;;;5075607;28;20024;-86
2022/03/23 15:02:13;;;;;;;18.30;5.22;;;;;;;;;;5043514;28;20067;-81
2022/03/23 15:04:39;;;;;;;12.18;5.00;;;;;;;;;;5093408;28;20024;-81
2022/03/23 15:15:20;;;;;;;13.55;4.00;;;;;;;;;;5093888;28;20532;-83
2022/03/23 15:17:46;;;;;;;7.80;3.78;;;;;;;;;;5075682;28;20062;-83
2022/03/23 15:20:11;;;;;;;11.88;3.92;;;;;;;;;;5045643;28;20028;-84
2022/03/23 15:22:38;;;;;;;8.82;3.92;;;;;;;;;;5078232;28;20106;-79